createdAt,value
2019-03-28T00:02:05.712Z,7.50
2019-03-28T00:04:34.131Z,10.73
2019-03-28T00:07:02.571Z,9.83
2019-03-28T00:09:30.992Z,11.50
2019-03-28T00:11:59.432Z,10.73
2019-03-28T00:14:27.853Z,11.10
2019-03-28T00:16:56.306Z,10.23
2019-03-28T00:19:24.724Z,11.27
2019-03-28T00:21:53.164Z,11.73
2019-03-28T00:24:23.217Z,11.03
2019-03-28T00:26:51.689Z,11.90
2019-03-28T00:29:20.103Z,9.70
2019-03-28T00:31:48.686Z,11.60
2019-03-28T00:34:17.131Z,11.90
2019-03-28T00:36:45.543Z,8.40
2019-03-28T00:39:13.983Z,11.10
2019-03-28T00:41:42.410Z,9.67
2019-03-28T00:44:10.852Z,13.60
2019-03-28T00:46:39.268Z,11.80
2019-03-28T00:49:07.724Z,11.03
2019-03-28T00:51:36.138Z,9.97
2019-03-28T00:54:04.748Z,11.63
2019-03-28T00:56:44.786Z,12.27
2019-03-28T00:59:03.346Z,10.80
2019-03-28T01:01:31.916Z,11.70
2019-03-28T01:04:00.343Z,12.53
2019-03-28T01:06:28.829Z,10.40
2019-03-28T01:08:57.278Z,11.80
2019-03-28T01:11:25.688Z,9.73
2019-03-28T01:13:54.132Z,10.70
2019-03-28T01:16:22.554Z,11.17
2019-03-28T01:18:51.000Z,10.73
2019-03-28T01:21:19.421Z,12.57
2019-03-28T01:23:47.863Z,11.70
2019-03-28T01:26:16.273Z,8.83
2019-03-28T01:28:44.701Z,10.70
2019-03-28T01:31:13.191Z,10.10
2019-03-28T01:33:41.631Z,9.40
2019-03-28T01:36:10.048Z,11.10
2019-03-28T01:38:38.475Z,10.87
2019-03-28T01:41:06.918Z,10.27
2019-03-28T01:43:35.333Z,10.60
2019-03-28T01:46:03.779Z,10.43
2019-03-28T01:48:32.191Z,11.90
2019-03-28T01:51:00.637Z,12.30
2019-03-28T01:53:29.052Z,10.50
2019-03-28T01:55:57.499Z,11.30
2019-03-28T01:58:25.909Z,12.77
2019-03-28T02:00:57.499Z,11.17
2019-03-28T02:03:25.916Z,13.73
2019-03-28T02:05:54.362Z,12.33
2019-03-28T02:08:24.902Z,12.23
2019-03-28T02:10:52.943Z,11.80
2019-03-28T02:13:22.213Z,12.83
2019-03-28T02:15:50.846Z,13.30
2019-03-28T02:18:19.262Z,14.60
2019-03-28T02:20:47.709Z,13.13
2019-03-28T02:23:16.136Z,12.80
2019-03-28T02:25:44.585Z,13.30
2019-03-28T02:28:12.994Z,12.50
2019-03-28T02:30:41.441Z,12.70
2019-03-28T02:33:09.853Z,12.77
2019-03-28T02:35:44.050Z,13.60
2019-03-28T02:38:12.461Z,13.40
2019-03-28T02:40:40.918Z,13.40
2019-03-28T02:43:09.342Z,13.17
2019-03-28T02:45:37.786Z,11.77
2019-03-28T02:48:06.281Z,11.30
2019-03-28T02:50:34.714Z,9.60
2019-03-28T02:53:03.136Z,14.13
2019-03-28T02:55:31.577Z,11.77
2019-03-28T02:57:59.995Z,12.20
2019-03-28T03:00:28.439Z,14.10
2019-03-28T03:02:56.858Z,13.87
2019-03-28T03:05:25.374Z,12.40
2019-03-28T03:07:53.864Z,12.27
2019-03-28T03:10:22.374Z,13.57
2019-03-28T03:12:50.784Z,12.20
2019-03-28T03:15:19.301Z,13.33
2019-03-28T03:17:47.714Z,10.37
2019-03-28T03:20:16.231Z,11.57
2019-03-28T03:22:44.719Z,11.10
2019-03-28T03:25:14.711Z,10.97
2019-03-28T03:27:57.172Z,12.00
2019-03-28T03:30:13.659Z,12.50
2019-03-28T03:32:42.218Z,11.97
2019-03-28T03:35:11.151Z,11.93
2019-03-28T03:37:39.589Z,11.57
2019-03-28T03:40:09.717Z,11.47
2019-03-28T03:42:38.161Z,11.47
2019-03-28T03:45:09.004Z,10.33
2019-03-28T03:47:37.969Z,10.37
2019-03-28T03:50:06.755Z,11.40
2019-03-28T03:52:35.201Z,10.70
2019-03-28T03:55:04.292Z,10.40
2019-03-28T03:57:32.733Z,11.63
2019-03-28T04:00:01.141Z,7.97
2019-03-28T04:02:29.591Z,10.77
2019-03-28T04:04:57.997Z,11.20
2019-03-28T04:07:26.437Z,7.97
2019-03-28T04:09:54.855Z,10.80
2019-03-28T04:12:23.373Z,13.13
2019-03-28T04:14:51.794Z,11.53
2019-03-28T04:17:20.239Z,12.50
2019-03-28T04:19:48.657Z,10.67
2019-03-28T04:22:17.094Z,9.63
2019-03-28T04:24:45.514Z,11.10
2019-03-28T04:27:13.967Z,11.97
2019-03-28T04:29:42.375Z,11.37
2019-03-28T04:32:10.832Z,12.00
2019-03-28T04:34:39.252Z,12.30
2019-03-28T04:37:07.696Z,13.10
2019-03-28T04:39:36.117Z,11.03
2019-03-28T04:42:04.566Z,11.20
2019-03-28T04:44:32.980Z,10.40
2019-03-28T04:47:01.430Z,11.70
2019-03-28T04:49:29.854Z,11.37
2019-03-28T04:51:58.301Z,12.23
2019-03-28T04:54:26.726Z,11.63
2019-03-28T04:56:55.170Z,12.60
2019-03-28T04:59:23.666Z,9.57
2019-03-28T05:02:02.469Z,14.80
2019-03-28T05:04:22.237Z,12.60
2019-03-28T05:06:50.677Z,16.70
2019-03-28T05:09:19.094Z,14.30
2019-03-28T05:11:47.505Z,12.90
2019-03-28T05:14:15.951Z,9.37
2019-03-28T05:16:44.371Z,20.27
2019-03-28T05:19:12.810Z,11.90
2019-03-28T05:21:41.229Z,15.97
2019-03-28T05:24:09.674Z,13.23
2019-03-28T05:26:38.098Z,15.67
2019-03-28T05:29:06.545Z,13.13
2019-03-28T05:31:34.955Z,11.70
2019-03-28T05:34:03.405Z,13.70
2019-03-28T05:36:31.821Z,12.00
2019-03-28T05:39:00.272Z,10.30
2019-03-28T05:41:28.685Z,13.57
2019-03-28T05:43:57.123Z,14.27
2019-03-28T05:46:25.568Z,14.93
2019-03-28T05:48:54.053Z,12.67
2019-03-28T05:51:22.473Z,13.00
2019-03-28T05:53:50.913Z,12.40
2019-03-28T05:56:19.334Z,14.50
2019-03-28T05:58:47.777Z,11.63
2019-03-28T06:01:16.191Z,12.50
2019-03-28T06:03:44.626Z,9.80
2019-03-28T06:06:13.055Z,14.57
2019-03-28T06:08:41.503Z,14.10
2019-03-28T06:11:09.919Z,13.10
2019-03-28T06:13:38.362Z,12.37
2019-03-28T06:16:06.787Z,12.43
2019-03-28T06:18:35.227Z,13.20
2019-03-28T06:21:03.642Z,11.00
2019-03-28T06:23:32.087Z,11.87
2019-03-28T06:26:00.502Z,10.90
2019-03-28T06:28:28.957Z,11.53
2019-03-28T06:30:57.391Z,11.27
2019-03-28T06:33:25.792Z,12.27
2019-03-28T06:35:54.310Z,10.90
2019-03-28T06:38:22.726Z,11.80
2019-03-28T06:40:51.171Z,11.23
2019-03-28T06:43:19.587Z,11.43
2019-03-28T06:45:48.027Z,11.30
2019-03-28T06:48:16.525Z,11.10
2019-03-28T06:50:44.973Z,10.10
2019-03-28T06:53:13.387Z,10.10
2019-03-28T06:55:41.838Z,10.80
2019-03-28T06:58:10.242Z,12.10
2019-03-28T07:00:38.685Z,12.10
2019-03-28T07:03:07.105Z,10.40
2019-03-28T07:05:35.546Z,10.90
2019-03-28T07:08:03.959Z,12.20
2019-03-28T07:10:32.402Z,11.67
2019-03-28T07:13:00.888Z,11.17
2019-03-28T07:15:29.406Z,12.27
2019-03-28T07:17:57.813Z,9.33
2019-03-28T07:20:26.427Z,11.23
2019-03-28T07:22:55.054Z,11.00
2019-03-28T07:25:25.559Z,10.17
2019-03-28T07:27:53.627Z,9.97
2019-03-28T07:30:22.211Z,12.67
2019-03-28T07:32:50.625Z,11.67
2019-03-28T07:35:19.102Z,13.37
2019-03-28T07:37:47.519Z,13.23
2019-03-28T07:40:16.078Z,10.17
2019-03-28T07:42:44.528Z,13.97
2019-03-28T07:45:14.286Z,12.77
2019-03-28T07:47:42.723Z,15.77
2019-03-28T07:50:11.690Z,15.13
2019-03-28T07:52:40.476Z,14.30
2019-03-28T07:55:09.263Z,15.63
2019-03-28T07:57:37.708Z,11.53
2019-03-28T08:00:09.131Z,9.63
2019-03-28T08:02:37.668Z,9.07
2019-03-28T08:05:08.243Z,9.60
2019-03-28T08:07:44.898Z,9.53
2019-03-28T08:10:07.603Z,8.77
2019-03-28T08:12:36.050Z,6.90
2019-03-28T08:15:08.866Z,9.83
2019-03-28T08:17:37.306Z,9.70
2019-03-28T08:20:08.426Z,8.27
2019-03-28T08:22:36.867Z,8.77
2019-03-28T08:25:11.352Z,8.83
2019-03-28T08:27:37.863Z,9.20
2019-03-28T08:30:18.319Z,9.83
2019-03-28T08:32:39.965Z,8.90
2019-03-28T08:35:08.937Z,7.30
2019-03-28T08:37:37.746Z,5.20
2019-03-28T08:40:08.504Z,5.60
2019-03-28T08:42:36.942Z,6.17
2019-03-28T08:45:09.600Z,5.43
2019-03-28T08:47:38.117Z,6.83
2019-03-28T08:50:07.455Z,6.40
2019-03-28T08:52:35.968Z,7.40
2019-03-28T08:55:09.817Z,7.57
2019-03-28T08:57:36.680Z,5.50
2019-03-28T09:00:07.779Z,6.70
2019-03-28T09:02:36.289Z,5.20
2019-03-28T09:05:05.737Z,5.13
2019-03-28T09:07:34.180Z,5.03
2019-03-28T09:10:02.598Z,4.10
2019-03-28T09:12:31.041Z,5.83
2019-03-28T09:14:59.453Z,5.40
2019-03-28T09:17:27.897Z,5.27
2019-03-28T09:19:56.313Z,4.73
2019-03-28T09:22:24.817Z,6.63
2019-03-28T09:24:53.239Z,5.63
2019-03-28T09:27:21.658Z,4.70
2019-03-28T09:29:50.103Z,8.67
2019-03-28T09:32:18.519Z,7.47
2019-03-28T09:34:46.965Z,10.13
2019-03-28T09:37:15.393Z,11.50
2019-03-28T09:39:43.828Z,6.53
2019-03-28T09:42:12.237Z,5.93
2019-03-28T09:44:40.673Z,5.27
2019-03-28T09:47:09.082Z,6.87
2019-03-28T09:49:38.470Z,8.23
2019-03-28T09:52:06.952Z,8.50
2019-03-28T09:54:35.396Z,10.73
2019-03-28T09:57:03.825Z,8.47
2019-03-28T09:59:32.329Z,9.23
2019-03-28T10:02:01.401Z,8.60
2019-03-28T10:04:30.468Z,4.80
2019-03-28T10:06:58.880Z,7.20
2019-03-28T10:09:27.317Z,7.10
2019-03-28T10:11:55.730Z,7.10
2019-03-28T10:14:24.168Z,7.43
2019-03-28T10:16:52.650Z,8.63
2019-03-28T10:19:21.092Z,7.00
2019-03-28T10:21:49.502Z,5.80
2019-03-28T10:24:17.940Z,7.20
2019-03-28T10:26:46.353Z,7.07
2019-03-28T10:29:14.797Z,16.30
2019-03-28T10:31:43.209Z,6.20
2019-03-28T10:34:11.649Z,5.83
2019-03-28T10:36:40.061Z,5.33
2019-03-28T10:39:09.074Z,5.20
2019-03-28T10:41:39.824Z,3.97
2019-03-28T10:44:07.656Z,6.57
2019-03-28T10:46:36.134Z,6.13
2019-03-28T10:49:04.652Z,5.20
2019-03-28T10:51:33.071Z,3.43
2019-03-28T10:54:01.516Z,4.63
2019-03-28T10:56:29.936Z,5.80
2019-03-28T10:58:58.378Z,6.50
2019-03-28T11:01:47.054Z,5.27
2019-03-28T11:03:56.953Z,4.07
2019-03-28T11:06:25.439Z,5.90
2019-03-28T11:08:53.875Z,5.37
2019-03-28T11:11:22.599Z,5.27
2019-03-28T11:13:51.207Z,4.50
2019-03-28T11:16:19.637Z,3.80
2019-03-28T11:18:48.084Z,5.77
2019-03-28T11:21:16.509Z,5.57
2019-03-28T11:23:44.945Z,5.97
2019-03-28T11:26:13.366Z,5.53
2019-03-28T11:28:42.267Z,5.70
2019-03-28T11:31:10.801Z,5.97
2019-03-28T11:33:39.219Z,6.00
2019-03-28T11:36:07.726Z,7.20
2019-03-28T11:38:36.137Z,7.90
2019-03-28T11:41:04.588Z,6.80
2019-03-28T11:43:33.006Z,5.80
2019-03-28T11:46:01.518Z,6.87
2019-03-28T11:48:29.926Z,6.47
2019-03-28T11:50:58.368Z,7.00
2019-03-28T11:53:26.773Z,6.07
2019-03-28T11:55:55.216Z,7.27
2019-03-28T11:58:23.623Z,7.07
2019-03-28T12:00:52.062Z,7.07
2019-03-28T12:03:20.532Z,5.43
2019-03-28T12:05:48.984Z,7.30
2019-03-28T12:08:17.398Z,8.03
2019-03-28T12:10:45.849Z,7.90
2019-03-28T12:13:14.254Z,7.93
2019-03-28T12:15:42.699Z,6.43
2019-03-28T12:18:11.111Z,6.73
2019-03-28T12:20:39.542Z,7.27
2019-03-28T12:23:07.947Z,7.40
2019-03-28T12:25:36.399Z,6.00
2019-03-28T12:28:04.883Z,6.13
2019-03-28T12:30:33.324Z,6.93
2019-03-28T12:33:01.805Z,4.93
2019-03-28T12:35:30.248Z,5.40
2019-03-28T12:37:58.679Z,6.40
2019-03-28T12:40:27.120Z,7.50
2019-03-28T12:42:55.530Z,5.87
2019-03-28T12:45:24.050Z,5.70
2019-03-28T12:47:52.469Z,5.30
2019-03-28T12:50:20.983Z,5.47
2019-03-28T12:52:49.394Z,4.97
2019-03-28T12:55:17.840Z,3.57
2019-03-28T12:57:48.348Z,5.43
2019-03-28T13:00:18.524Z,5.07
2019-03-28T13:02:46.938Z,4.20
2019-03-28T13:05:15.591Z,5.00
2019-03-28T13:07:44.037Z,5.03
2019-03-28T13:10:12.990Z,3.57
2019-03-28T13:12:41.438Z,4.67
2019-03-28T13:15:10.090Z,4.77
2019-03-28T13:17:38.534Z,5.30
2019-03-28T13:20:08.691Z,5.20
2019-03-28T13:22:37.204Z,4.67
2019-03-28T13:25:07.551Z,5.10
2019-03-28T13:27:36.707Z,4.00
2019-03-28T13:30:09.239Z,4.17
2019-03-28T13:32:42.053Z,4.80
2019-03-28T13:35:08.053Z,4.30
2019-03-28T13:37:36.502Z,4.57
2019-03-28T13:40:08.118Z,4.40
2019-03-28T13:42:37.374Z,5.00
2019-03-28T13:45:08.165Z,5.20
2019-03-28T13:47:36.615Z,4.83
2019-03-28T13:50:09.668Z,3.80
2019-03-28T13:52:38.185Z,4.53
2019-03-28T13:55:07.443Z,4.50
2019-03-28T13:57:35.961Z,4.17
2019-03-28T14:00:06.178Z,4.90
2019-03-28T14:02:34.621Z,5.40
2019-03-28T14:05:03.112Z,4.63
2019-03-28T14:07:31.551Z,4.83
2019-03-28T14:09:59.966Z,5.00
2019-03-28T14:12:28.408Z,5.77
2019-03-28T14:14:56.832Z,4.47
2019-03-28T14:17:25.273Z,4.03
2019-03-28T14:19:53.697Z,4.90
2019-03-28T14:22:22.147Z,4.93
2019-03-28T14:24:50.574Z,4.07
2019-03-28T14:27:19.015Z,3.60
2019-03-28T14:29:47.429Z,4.40
2019-03-28T14:32:15.847Z,3.30
2019-03-28T14:34:44.286Z,4.50
2019-03-28T14:37:12.734Z,3.90
2019-03-28T14:39:41.148Z,3.90
2019-03-28T14:42:09.569Z,3.63
2019-03-28T14:44:38.011Z,4.60
2019-03-28T14:47:06.430Z,3.63
2019-03-28T14:49:34.990Z,4.10
2019-03-28T14:52:04.140Z,3.40
2019-03-28T14:54:32.723Z,4.10
2019-03-28T14:57:01.219Z,4.17
2019-03-28T14:59:32.732Z,4.23
2019-03-28T15:01:59.806Z,3.07
2019-03-28T15:04:28.248Z,3.40
2019-03-28T15:06:56.669Z,3.23
2019-03-28T15:09:25.128Z,4.27
2019-03-28T15:11:53.538Z,2.93
2019-03-28T15:14:21.984Z,4.20
2019-03-28T15:16:50.403Z,3.87
2019-03-28T15:19:18.855Z,3.70
2019-03-28T15:21:47.269Z,3.90
2019-03-28T15:24:15.710Z,3.70
2019-03-28T15:26:44.327Z,4.30
2019-03-28T15:29:12.856Z,3.83
2019-03-28T15:31:41.277Z,3.17
2019-03-28T15:34:09.722Z,4.70
2019-03-28T15:36:38.148Z,3.77
2019-03-28T15:39:08.333Z,4.23
2019-03-28T15:41:37.156Z,4.30
2019-03-28T15:44:05.559Z,4.57
2019-03-28T15:46:33.978Z,4.50
2019-03-28T15:49:02.429Z,4.97
2019-03-28T15:51:30.842Z,4.77
2019-03-28T15:53:59.263Z,4.80
2019-03-28T15:56:27.710Z,4.60
2019-03-28T15:58:56.126Z,4.60
2019-03-28T16:01:24.632Z,5.47
2019-03-28T16:03:53.616Z,5.03
2019-03-28T16:06:22.565Z,4.20
2019-03-28T16:08:51.137Z,4.87
2019-03-28T16:11:19.577Z,4.10
2019-03-28T16:13:48.004Z,4.10
2019-03-28T16:16:16.452Z,4.60
2019-03-28T16:18:44.864Z,5.50
2019-03-28T16:21:13.374Z,4.80
2019-03-28T16:23:41.790Z,5.17
2019-03-28T16:26:10.237Z,5.33
2019-03-28T16:28:38.658Z,6.10
2019-03-28T16:31:07.105Z,5.70
2019-03-28T16:33:35.587Z,4.47
2019-03-28T16:36:04.031Z,4.97
2019-03-28T16:38:32.949Z,5.13
2019-03-28T16:41:01.569Z,6.03
2019-03-28T16:43:30.053Z,5.50
2019-03-28T16:45:58.495Z,5.17
2019-03-28T16:48:26.911Z,5.10
2019-03-28T16:50:55.352Z,5.03
2019-03-28T16:53:23.829Z,4.20
2019-03-28T16:55:52.338Z,4.40
2019-03-28T16:58:20.750Z,5.87
2019-03-28T17:00:49.193Z,6.20
2019-03-28T17:03:17.681Z,5.70
2019-03-28T17:05:47.256Z,6.27
2019-03-28T17:08:17.698Z,5.80
2019-03-28T17:10:48.121Z,6.80
2019-03-28T17:13:16.680Z,7.13
2019-03-28T17:15:45.312Z,8.20
2019-03-28T17:18:13.764Z,8.27
2019-03-28T17:20:42.312Z,7.90
2019-03-28T17:23:10.822Z,8.30
2019-03-28T17:25:39.236Z,7.73
2019-03-28T17:28:07.674Z,7.47
2019-03-28T17:30:36.091Z,7.77
2019-03-28T17:33:05.343Z,6.80
2019-03-28T17:35:34.460Z,7.70
2019-03-28T17:38:02.902Z,8.30
2019-03-28T17:40:31.386Z,8.87
2019-03-28T17:42:59.821Z,8.90
2019-03-28T17:45:28.238Z,8.70
2019-03-28T17:47:56.686Z,9.43
2019-03-28T17:50:25.104Z,8.80
2019-03-28T17:52:53.763Z,8.30
2019-03-28T17:55:22.347Z,7.77
2019-03-28T17:57:50.795Z,8.37
2019-03-28T18:00:19.383Z,8.30
2019-03-28T18:02:47.830Z,8.50
2019-03-28T18:05:16.314Z,9.33
2019-03-28T18:07:44.761Z,10.00
2019-03-28T18:10:13.720Z,10.10
2019-03-28T18:12:42.160Z,8.10
2019-03-28T18:15:10.910Z,7.50
2019-03-28T18:17:39.370Z,7.80
2019-03-28T18:20:08.001Z,8.77
2019-03-28T18:22:36.587Z,7.90
2019-03-28T18:25:07.808Z,8.00
2019-03-28T18:27:36.512Z,8.53
2019-03-28T18:30:08.508Z,7.83
2019-03-28T18:32:39.395Z,8.83
2019-03-28T18:35:08.719Z,8.37
2019-03-28T18:37:37.167Z,8.70
2019-03-28T18:40:08.639Z,10.30
2019-03-28T18:42:37.157Z,9.43
2019-03-28T18:45:07.767Z,10.70
2019-03-28T18:47:36.551Z,10.10
2019-03-28T18:50:06.353Z,11.07
2019-03-28T18:52:34.839Z,12.83
2019-03-28T18:55:03.949Z,13.73
2019-03-28T18:57:32.364Z,12.93
2019-03-28T19:00:00.818Z,13.50
2019-03-28T19:02:29.230Z,11.53
2019-03-28T19:04:57.686Z,11.93
2019-03-28T19:07:26.183Z,10.70
2019-03-28T19:09:54.629Z,10.23
2019-03-28T19:12:23.053Z,10.77
2019-03-28T19:14:51.503Z,10.50
2019-03-28T19:17:19.911Z,9.43
2019-03-28T19:19:48.354Z,9.13
2019-03-28T19:22:16.770Z,8.83
2019-03-28T19:24:45.210Z,9.33
2019-03-28T19:27:13.695Z,9.37
2019-03-28T19:29:42.142Z,9.30
2019-03-28T19:32:10.943Z,9.40
2019-03-28T19:34:39.393Z,9.70
2019-03-28T19:37:07.890Z,11.87
2019-03-28T19:39:36.706Z,12.90
2019-03-28T19:42:05.360Z,13.13
2019-03-28T19:44:33.806Z,12.07
2019-03-28T19:47:02.226Z,12.30
2019-03-28T19:49:30.679Z,11.23
2019-03-28T19:51:59.973Z,11.33
2019-03-28T19:54:28.515Z,11.77
2019-03-28T19:56:57.451Z,11.80
2019-03-28T19:59:26.222Z,11.97
2019-03-28T20:01:54.626Z,11.80
2019-03-28T20:04:23.138Z,11.17
2019-03-28T20:06:51.549Z,11.63
2019-03-28T20:09:19.997Z,11.50
2019-03-28T20:11:48.427Z,12.60
2019-03-28T20:14:16.850Z,12.47
2019-03-28T20:16:45.297Z,12.20
2019-03-28T20:19:13.718Z,12.03
2019-03-28T20:21:42.162Z,12.40
2019-03-28T20:24:10.592Z,12.17
2019-03-28T20:26:39.031Z,11.20
2019-03-28T20:29:08.713Z,11.70
2019-03-28T20:31:37.365Z,12.20
2019-03-28T20:34:05.786Z,12.80
2019-03-28T20:36:38.639Z,12.73
2019-03-28T20:39:07.295Z,13.73
2019-03-28T20:41:35.745Z,16.13
2019-03-28T20:44:04.309Z,14.80
2019-03-28T20:46:32.750Z,14.90
2019-03-28T20:49:01.168Z,14.77
2019-03-28T20:51:29.609Z,15.30
2019-03-28T20:53:58.060Z,15.27
2019-03-28T20:56:26.517Z,16.17
2019-03-28T20:58:55.036Z,15.73
2019-03-28T21:01:23.653Z,16.27
2019-03-28T21:03:52.145Z,15.57
2019-03-28T21:06:20.723Z,16.33
2019-03-28T21:08:49.202Z,16.77
2019-03-28T21:11:17.651Z,16.43
2019-03-28T21:13:46.071Z,16.40
2019-03-28T21:16:14.603Z,17.60
2019-03-28T21:18:43.004Z,16.90
2019-03-28T21:21:11.450Z,16.20
2019-03-28T21:23:39.949Z,17.20
2019-03-28T21:26:08.394Z,16.90
2019-03-28T21:28:47.214Z,18.77
2019-03-28T21:31:07.109Z,19.30
2019-03-28T21:33:35.635Z,19.20
2019-03-28T21:36:04.267Z,17.13
2019-03-28T21:38:33.384Z,18.50
2019-03-28T21:41:01.795Z,18.27
2019-03-28T21:43:31.130Z,17.77
2019-03-28T21:45:59.639Z,17.80
2019-03-28T21:48:28.082Z,18.00
2019-03-28T21:50:56.544Z,17.40
2019-03-28T21:53:24.995Z,17.03
2019-03-28T21:55:55.442Z,15.83
2019-03-28T21:58:23.661Z,16.47
2019-03-28T22:00:52.078Z,15.77
2019-03-28T22:03:20.527Z,13.63
2019-03-28T22:05:48.944Z,14.77
2019-03-28T22:08:17.392Z,12.13
2019-03-28T22:10:45.880Z,13.80
2019-03-28T22:13:14.328Z,13.30
2019-03-28T22:15:42.748Z,13.03
2019-03-28T22:18:11.181Z,11.30
2019-03-28T22:20:39.599Z,11.47
2019-03-28T22:23:08.042Z,10.87
2019-03-28T22:25:36.524Z,11.43
2019-03-28T22:28:04.979Z,11.33
2019-03-28T22:30:33.409Z,12.03
2019-03-28T22:33:01.829Z,10.63
2019-03-28T22:35:30.262Z,10.93
2019-03-28T22:37:58.692Z,10.10
2019-03-28T22:40:27.134Z,9.43
2019-03-28T22:42:55.544Z,8.23
2019-03-28T22:45:24.065Z,9.43
2019-03-28T22:47:52.466Z,9.30
2019-03-28T22:50:20.908Z,9.03
2019-03-28T22:52:49.317Z,8.90
2019-03-28T22:55:17.827Z,8.33
2019-03-28T22:57:46.253Z,9.50
2019-03-28T23:00:15.448Z,9.30
2019-03-28T23:02:43.992Z,7.93
2019-03-28T23:05:12.766Z,7.93
2019-03-28T23:07:41.219Z,7.63
2019-03-28T23:10:10.132Z,8.57
2019-03-28T23:12:38.545Z,7.93
2019-03-28T23:15:08.073Z,7.30
2019-03-28T23:17:36.483Z,7.40
2019-03-28T23:20:07.871Z,7.77
2019-03-28T23:22:36.395Z,7.57
2019-03-28T23:25:05.766Z,7.70
2019-03-28T23:27:34.319Z,7.50
2019-03-28T23:30:03.082Z,8.10
2019-03-28T23:32:31.712Z,8.47
2019-03-28T23:35:00.419Z,7.90
2019-03-28T23:37:28.839Z,7.90
2019-03-28T23:39:57.274Z,7.40
2019-03-28T23:42:25.696Z,7.50
2019-03-28T23:44:54.142Z,7.53
2019-03-28T23:47:22.551Z,8.00
2019-03-28T23:49:50.992Z,8.77
2019-03-28T23:52:19.404Z,8.20
2019-03-28T23:54:47.826Z,7.57
2019-03-28T23:57:16.279Z,7.70
2019-03-28T23:59:44.686Z,8.10
